Aviation Digital Data Service (ADDS)

Output produced by METARs form (0222 UTC 02 September 2015)
found at http://aviationweather.gov/adds/metars/
 
KLEB 020103Z 0201/0224 00000KT 4SM BR FEW250 
     TEMPO 0201/0204 P6SM NSW 
     FM020600 00000KT 2SM BR SCT002 
     FM020800 00000KT 1/4SM FG BKN002 
     FM021330 25005KT P6SM SCT250